sensor_id;sensor_type;location;lat;lon;timestamp;temperature;humidity
23477;DHT22;11911;50.768;13.150;2022-08-19T04:01:32;17.90;96.30
23477;DHT22;11911;50.768;13.150;2022-08-19T04:03:59;17.90;96.30
23477;DHT22;11911;50.768;13.150;2022-08-19T04:06:29;17.90;96.30
23477;DHT22;11911;50.768;13.150;2022-08-19T04:08:56;17.90;96.30
23477;DHT22;11911;50.768;13.150;2022-08-19T04:11:29;17.90;96.30
23477;DHT22;11911;50.768;13.150;2022-08-19T04:13:55;17.90;96.30
23477;DHT22;11911;50.768;13.150;2022-08-19T04:16:22;17.90;96.30
23477;DHT22;11911;50.768;13.150;2022-08-19T04:18:48;17.90;96.30
23477;DHT22;11911;50.768;13.150;2022-08-19T04:21:20;17.90;96.30
23477;DHT22;11911;50.768;13.150;2022-08-19T04:23:46;17.90;96.30
23477;DHT22;11911;50.768;13.150;2022-08-19T04:26:23;18.00;96.30
23477;DHT22;11911;50.768;13.150;2022-08-19T04:28:49;18.00;96.30
23477;DHT22;11911;50.768;13.150;2022-08-19T04:31:19;18.00;96.30
23477;DHT22;11911;50.768;13.150;2022-08-19T04:33:45;18.00;96.30
23477;DHT22;11911;50.768;13.150;2022-08-19T04:36:21;18.00;96.30
23477;DHT22;11911;50.768;13.150;2022-08-19T04:38:48;18.00;96.30
23477;DHT22;11911;50.768;13.150;2022-08-19T04:41:14;18.00;96.30
23477;DHT22;11911;50.768;13.150;2022-08-19T04:43:59;18.00;96.30
23477;DHT22;11911;50.768;13.150;2022-08-19T04:46:24;18.00;96.30
23477;DHT22;11911;50.768;13.150;2022-08-19T04:48:50;18.00;96.30
23477;DHT22;11911;50.768;13.150;2022-08-19T04:51:16;18.00;96.30
23477;DHT22;11911;50.768;13.150;2022-08-19T04:53:42;18.00;96.30
23477;DHT22;11911;50.768;13.150;2022-08-19T04:56:10;18.00;96.30
23477;DHT22;11911;50.768;13.150;2022-08-19T04:58:37;18.00;96.30
23477;DHT22;11911;50.768;13.150;2022-08-19T05:01:04;18.00;96.30
23477;DHT22;11911;50.768;13.150;2022-08-19T05:03:29;18.00;96.30
23477;DHT22;11911;50.768;13.150;2022-08-19T05:06:06;18.00;96.30
23477;DHT22;11911;50.768;13.150;2022-08-19T05:08:33;18.00;96.30
23477;DHT22;11911;50.768;13.150;2022-08-19T05:10:59;18.00;96.30
23477;DHT22;11911;50.768;13.150;2022-08-19T05:13:25;18.00;96.30
23477;DHT22;11911;50.768;13.150;2022-08-19T05:15:58;18.00;96.30
23477;DHT22;11911;50.768;13.150;2022-08-19T05:18:24;18.10;96.30
23477;DHT22;11911;50.768;13.150;2022-08-19T05:21:11;18.10;96.30
23477;DHT22;11911;50.768;13.150;2022-08-19T05:23:55;18.10;96.30
23477;DHT22;11911;50.768;13.150;2022-08-19T05:26:21;18.10;96.30
23477;DHT22;11911;50.768;13.150;2022-08-19T05:28:47;18.10;96.30
23477;DHT22;11911;50.768;13.150;2022-08-19T05:31:12;18.10;96.30
23477;DHT22;11911;50.768;13.150;2022-08-19T05:33:38;18.10;96.30
23477;DHT22;11911;50.768;13.150;2022-08-19T05:36:05;18.10;96.30
23477;DHT22;11911;50.768;13.150;2022-08-19T05:38:33;18.10;96.30
23477;DHT22;11911;50.768;13.150;2022-08-19T05:40:59;18.10;96.30
23477;DHT22;11911;50.768;13.150;2022-08-19T05:43:24;18.10;96.30
23477;DHT22;11911;50.768;13.150;2022-08-19T05:45:50;18.10;96.30
23477;DHT22;11911;50.768;13.150;2022-08-19T05:48:16;18.20;96.30
23477;DHT22;11911;50.768;13.150;2022-08-19T05:50:45;18.20;96.30
23477;DHT22;11911;50.768;13.150;2022-08-19T05:53:12;18.20;96.30
23477;DHT22;11911;50.768;13.150;2022-08-19T05:55:37;18.30;96.30
23477;DHT22;11911;50.768;13.150;2022-08-19T05:58:06;18.30;96.30
23477;DHT22;11911;50.768;13.150;2022-08-19T06:00:33;18.30;96.30
23477;DHT22;11911;50.768;13.150;2022-08-19T06:02:59;18.30;96.30
23477;DHT22;11911;50.768;13.150;2022-08-19T06:05:29;18.30;96.30
23477;DHT22;11911;50.768;13.150;2022-08-19T06:07:54;18.30;96.30
23477;DHT22;11911;50.768;13.150;2022-08-19T06:10:20;18.30;96.30
23477;DHT22;11911;50.768;13.150;2022-08-19T06:12:47;18.30;96.30
23477;DHT22;11911;50.768;13.150;2022-08-19T06:15:14;18.30;96.30
23477;DHT22;11911;50.768;13.150;2022-08-19T06:17:40;18.30;96.30
23477;DHT22;11911;50.768;13.150;2022-08-19T06:20:09;18.30;96.30
23477;DHT22;11911;50.768;13.150;2022-08-19T06:22:48;18.30;96.30
23477;DHT22;11911;50.768;13.150;2022-08-19T06:25:17;18.30;96.30
23477;DHT22;11911;50.768;13.150;2022-08-19T06:27:43;18.30;96.30
23477;DHT22;11911;50.768;13.150;2022-08-19T06:30:10;18.30;96.30
23477;DHT22;11911;50.768;13.150;2022-08-19T06:32:36;18.30;96.30
23477;DHT22;11911;50.768;13.150;2022-08-19T06:35:03;18.30;96.30
23477;DHT22;11911;50.768;13.150;2022-08-19T06:37:28;18.30;96.30
23477;DHT22;11911;50.768;13.150;2022-08-19T06:39:54;18.30;96.30
23477;DHT22;11911;50.768;13.150;2022-08-19T06:42:19;18.30;96.30
23477;DHT22;11911;50.768;13.150;2022-08-19T06:44:46;18.30;96.30
23477;DHT22;11911;50.768;13.150;2022-08-19T06:47:18;18.30;96.30
23477;DHT22;11911;50.768;13.150;2022-08-19T06:49:44;18.20;96.30
23477;DHT22;11911;50.768;13.150;2022-08-19T06:52:10;18.20;96.30
23477;DHT22;11911;50.768;13.150;2022-08-19T06:54:41;18.20;96.30
23477;DHT22;11911;50.768;13.150;2022-08-19T06:57:07;18.30;96.30
23477;DHT22;11911;50.768;13.150;2022-08-19T06:59:34;18.30;96.30
23477;DHT22;11911;50.768;13.150;2022-08-19T07:02:03;18.30;96.30
23477;DHT22;11911;50.768;13.150;2022-08-19T07:04:31;18.30;96.30
23477;DHT22;11911;50.768;13.150;2022-08-19T07:07:04;18.40;96.30
23477;DHT22;11911;50.768;13.150;2022-08-19T07:09:33;18.40;96.30
23477;DHT22;11911;50.768;13.150;2022-08-19T07:11:59;18.50;96.30
23477;DHT22;11911;50.768;13.150;2022-08-19T07:14:26;18.50;96.30
23477;DHT22;11911;50.768;13.150;2022-08-19T07:16:55;18.60;96.30
23477;DHT22;11911;50.768;13.150;2022-08-19T07:19:23;18.80;96.30
23477;DHT22;11911;50.768;13.150;2022-08-19T07:21:50;18.90;96.30
23477;DHT22;11911;50.768;13.150;2022-08-19T07:24:18;19.00;96.30
23477;DHT22;11911;50.768;13.150;2022-08-19T07:26:45;19.10;96.30
23477;DHT22;11911;50.768;13.150;2022-08-19T07:29:11;19.10;96.30
23477;DHT22;11911;50.768;13.150;2022-08-19T07:31:37;19.10;96.30
23477;DHT22;11911;50.768;13.150;2022-08-19T07:34:05;19.20;96.30
23477;DHT22;11911;50.768;13.150;2022-08-19T07:36:36;19.20;96.30
23477;DHT22;11911;50.768;13.150;2022-08-19T07:39:06;19.20;96.30
23477;DHT22;11911;50.768;13.150;2022-08-19T07:41:34;19.40;96.30
23477;DHT22;11911;50.768;13.150;2022-08-19T07:43:59;19.50;96.30
23477;DHT22;11911;50.768;13.150;2022-08-19T07:46:31;19.50;96.30
23477;DHT22;11911;50.768;13.150;2022-08-19T07:48:57;19.40;96.30
23477;DHT22;11911;50.768;13.150;2022-08-19T07:51:22;19.50;96.30
23477;DHT22;11911;50.768;13.150;2022-08-19T07:53:48;19.60;96.30
23477;DHT22;11911;50.768;13.150;2022-08-19T07:56:16;19.60;96.30
23477;DHT22;11911;50.768;13.150;2022-08-19T07:58:44;19.60;96.30
23477;DHT22;11911;50.768;13.150;2022-08-19T08:01:14;19.70;96.30
23477;DHT22;11911;50.768;13.150;2022-08-19T08:03:40;19.60;96.30
23477;DHT22;11911;50.768;13.150;2022-08-19T08:06:24;19.60;96.30
23477;DHT22;11911;50.768;13.150;2022-08-19T08:09:10;19.60;96.30
23477;DHT22;11911;50.768;13.150;2022-08-19T08:11:55;19.60;96.30
23477;DHT22;11911;50.768;13.150;2022-08-19T08:14:28;19.90;96.30
23477;DHT22;11911;50.768;13.150;2022-08-19T08:16:54;19.90;96.30
23477;DHT22;11911;50.768;13.150;2022-08-19T08:19:23;19.90;96.30
23477;DHT22;11911;50.768;13.150;2022-08-19T08:21:51;20.00;96.30
23477;DHT22;11911;50.768;13.150;2022-08-19T08:24:17;20.10;96.30
23477;DHT22;11911;50.768;13.150;2022-08-19T08:26:43;20.00;96.30
23477;DHT22;11911;50.768;13.150;2022-08-19T08:29:12;20.00;96.30
23477;DHT22;11911;50.768;13.150;2022-08-19T08:31:39;19.90;96.30
23477;DHT22;11911;50.768;13.150;2022-08-19T08:34:05;19.60;96.30
23477;DHT22;11911;50.768;13.150;2022-08-19T08:36:31;19.50;96.30
23477;DHT22;11911;50.768;13.150;2022-08-19T08:38:59;19.30;96.30
23477;DHT22;11911;50.768;13.150;2022-08-19T08:41:47;19.20;96.30
23477;DHT22;11911;50.768;13.150;2022-08-19T08:44:23;19.10;96.30
23477;DHT22;11911;50.768;13.150;2022-08-19T08:46:56;19.00;96.30
23477;DHT22;11911;50.768;13.150;2022-08-19T08:49:38;19.10;96.30
23477;DHT22;11911;50.768;13.150;2022-08-19T08:52:21;19.10;96.30
23477;DHT22;11911;50.768;13.150;2022-08-19T08:54:49;19.10;96.30
23477;DHT22;11911;50.768;13.150;2022-08-19T08:59:53;19.20;96.30
23477;DHT22;11911;50.768;13.150;2022-08-19T09:02:20;19.20;96.30
23477;DHT22;11911;50.768;13.150;2022-08-19T09:04:45;19.20;96.30
23477;DHT22;11911;50.768;13.150;2022-08-19T09:10:39;19.60;96.30
23477;DHT22;11911;50.768;13.150;2022-08-19T09:13:31;19.70;96.30
23477;DHT22;11911;50.768;13.150;2022-08-19T09:16:07;19.60;96.30
23477;DHT22;11911;50.768;13.150;2022-08-19T09:18:43;19.60;96.30
23477;DHT22;11911;50.768;13.150;2022-08-19T09:21:09;19.60;96.30
23477;DHT22;11911;50.768;13.150;2022-08-19T09:23:36;19.70;96.30
23477;DHT22;11911;50.768;13.150;2022-08-19T09:26:07;19.70;96.30
23477;DHT22;11911;50.768;13.150;2022-08-19T09:28:33;19.70;96.30
23477;DHT22;11911;50.768;13.150;2022-08-19T09:31:00;19.60;96.30
23477;DHT22;11911;50.768;13.150;2022-08-19T09:33:25;19.40;96.30
23477;DHT22;11911;50.768;13.150;2022-08-19T09:36:02;19.30;96.30
23477;DHT22;11911;50.768;13.150;2022-08-19T09:38:28;19.40;96.30
23477;DHT22;11911;50.768;13.150;2022-08-19T09:40:53;19.30;96.30
23477;DHT22;11911;50.768;13.150;2022-08-19T09:43:19;19.30;96.30
23477;DHT22;11911;50.768;13.150;2022-08-19T09:45:44;19.30;96.30
23477;DHT22;11911;50.768;13.150;2022-08-19T09:48:10;19.60;96.30
23477;DHT22;11911;50.768;13.150;2022-08-19T09:50:35;19.80;96.30
23477;DHT22;11911;50.768;13.150;2022-08-19T09:53:03;20.20;96.30
23477;DHT22;11911;50.768;13.150;2022-08-19T09:55:30;20.70;96.30
23477;DHT22;11911;50.768;13.150;2022-08-19T09:57:56;21.10;96.30
23477;DHT22;11911;50.768;13.150;2022-08-19T10:00:21;21.40;96.30
23477;DHT22;11911;50.768;13.150;2022-08-19T10:02:47;21.50;96.30
23477;DHT22;11911;50.768;13.150;2022-08-19T10:05:12;21.90;96.30
23477;DHT22;11911;50.768;13.150;2022-08-19T10:08:01;22.10;96.30
23477;DHT22;11911;50.768;13.150;2022-08-19T10:10:27;22.20;96.30
23477;DHT22;11911;50.768;13.150;2022-08-19T10:12:52;22.20;96.30
23477;DHT22;11911;50.768;13.150;2022-08-19T10:15:17;21.80;96.30
23477;DHT22;11911;50.768;13.150;2022-08-19T10:17:46;21.60;96.30
23477;DHT22;11911;50.768;13.150;2022-08-19T10:20:12;21.50;96.30
23477;DHT22;11911;50.768;13.150;2022-08-19T10:22:37;21.20;96.30
23477;DHT22;11911;50.768;13.150;2022-08-19T10:25:04;21.00;96.30
23477;DHT22;11911;50.768;13.150;2022-08-19T10:27:29;20.90;96.30
23477;DHT22;11911;50.768;13.150;2022-08-19T10:29:56;20.90;96.30
23477;DHT22;11911;50.768;13.150;2022-08-19T10:32:21;21.10;96.30
23477;DHT22;11911;50.768;13.150;2022-08-19T10:34:47;21.20;96.30
23477;DHT22;11911;50.768;13.150;2022-08-19T10:37:14;21.30;96.30
23477;DHT22;11911;50.768;13.150;2022-08-19T10:39:40;21.40;96.30
23477;DHT22;11911;50.768;13.150;2022-08-19T10:42:06;21.30;96.30
23477;DHT22;11911;50.768;13.150;2022-08-19T10:44:33;21.20;96.30
23477;DHT22;11911;50.768;13.150;2022-08-19T10:47:01;21.00;96.30
23477;DHT22;11911;50.768;13.150;2022-08-19T10:49:27;20.70;96.30
23477;DHT22;11911;50.768;13.150;2022-08-19T10:51:52;20.60;96.30
23477;DHT22;11911;50.768;13.150;2022-08-19T10:54:36;20.50;96.30
23477;DHT22;11911;50.768;13.150;2022-08-19T10:57:20;20.40;96.30
23477;DHT22;11911;50.768;13.150;2022-08-19T10:59:49;20.60;96.30
23477;DHT22;11911;50.768;13.150;2022-08-19T11:02:14;20.80;96.30
23477;DHT22;11911;50.768;13.150;2022-08-19T11:04:40;20.90;96.30
23477;DHT22;11911;50.768;13.150;2022-08-19T11:07:07;21.00;96.30
23477;DHT22;11911;50.768;13.150;2022-08-19T11:09:40;21.00;96.30
23477;DHT22;11911;50.768;13.150;2022-08-19T11:12:07;20.80;96.30
23477;DHT22;11911;50.768;13.150;2022-08-19T11:14:33;20.70;96.30
23477;DHT22;11911;50.768;13.150;2022-08-19T11:17:00;20.70;96.30
23477;DHT22;11911;50.768;13.150;2022-08-19T11:19:26;20.90;96.30
23477;DHT22;11911;50.768;13.150;2022-08-19T11:21:52;21.00;96.30
23477;DHT22;11911;50.768;13.150;2022-08-19T11:24:22;21.10;96.30
23477;DHT22;11911;50.768;13.150;2022-08-19T11:26:50;21.00;96.30
23477;DHT22;11911;50.768;13.150;2022-08-19T11:29:18;20.80;96.30
23477;DHT22;11911;50.768;13.150;2022-08-19T11:31:46;20.70;96.30
23477;DHT22;11911;50.768;13.150;2022-08-19T11:34:18;20.70;96.30
23477;DHT22;11911;50.768;13.150;2022-08-19T11:36:45;20.70;96.30
23477;DHT22;11911;50.768;13.150;2022-08-19T11:39:15;20.80;96.30
23477;DHT22;11911;50.768;13.150;2022-08-19T11:41:41;20.80;96.30
23477;DHT22;11911;50.768;13.150;2022-08-19T11:44:07;20.70;96.30
23477;DHT22;11911;50.768;13.150;2022-08-19T11:46:34;20.80;96.30
23477;DHT22;11911;50.768;13.150;2022-08-19T11:49:01;21.10;96.30
23477;DHT22;11911;50.768;13.150;2022-08-19T11:51:29;21.40;96.30
23477;DHT22;11911;50.768;13.150;2022-08-19T11:53:55;21.60;96.30
23477;DHT22;11911;50.768;13.150;2022-08-19T11:56:23;21.50;96.30
23477;DHT22;11911;50.768;13.150;2022-08-19T11:58:49;21.20;96.30
23477;DHT22;11911;50.768;13.150;2022-08-19T12:01:17;21.00;96.30
23477;DHT22;11911;50.768;13.150;2022-08-19T12:03:45;20.80;96.30
23477;DHT22;11911;50.768;13.150;2022-08-19T12:06:13;20.70;96.30
23477;DHT22;11911;50.768;13.150;2022-08-19T12:08:41;20.60;96.30
23477;DHT22;11911;50.768;13.150;2022-08-19T12:11:07;20.50;96.30
23477;DHT22;11911;50.768;13.150;2022-08-19T12:13:36;20.50;96.30
23477;DHT22;11911;50.768;13.150;2022-08-19T12:16:15;20.40;96.30
23477;DHT22;11911;50.768;13.150;2022-08-19T12:18:42;20.50;96.30
23477;DHT22;11911;50.768;13.150;2022-08-19T12:21:11;20.50;96.30
23477;DHT22;11911;50.768;13.150;2022-08-19T12:23:39;20.40;96.30
23477;DHT22;11911;50.768;13.150;2022-08-19T12:26:05;20.40;96.30
23477;DHT22;11911;50.768;13.150;2022-08-19T12:28:30;20.30;96.30
23477;DHT22;11911;50.768;13.150;2022-08-19T12:30:56;20.00;96.30
23477;DHT22;11911;50.768;13.150;2022-08-19T12:33:22;19.90;96.30
23477;DHT22;11911;50.768;13.150;2022-08-19T12:35:51;19.80;96.30
23477;DHT22;11911;50.768;13.150;2022-08-19T12:38:17;19.60;96.30
23477;DHT22;11911;50.768;13.150;2022-08-19T12:40:47;19.50;96.30
23477;DHT22;11911;50.768;13.150;2022-08-19T12:43:13;19.30;96.30
23477;DHT22;11911;50.768;13.150;2022-08-19T12:45:41;19.30;96.30
23477;DHT22;11911;50.768;13.150;2022-08-19T12:48:07;19.20;96.30
23477;DHT22;11911;50.768;13.150;2022-08-19T12:50:33;19.00;96.30
23477;DHT22;11911;50.768;13.150;2022-08-19T12:52:58;18.90;96.30
23477;DHT22;11911;50.768;13.150;2022-08-19T12:55:24;18.80;96.30
23477;DHT22;11911;50.768;13.150;2022-08-19T12:57:50;18.80;96.30
23477;DHT22;11911;50.768;13.150;2022-08-19T13:00:18;18.70;96.30
23477;DHT22;11911;50.768;13.150;2022-08-19T13:02:47;18.60;96.30
23477;DHT22;11911;50.768;13.150;2022-08-19T13:05:17;18.60;96.30
23477;DHT22;11911;50.768;13.150;2022-08-19T13:07:45;18.60;96.30
23477;DHT22;11911;50.768;13.150;2022-08-19T13:10:13;18.60;96.30
23477;DHT22;11911;50.768;13.150;2022-08-19T13:12:41;18.70;96.30
23477;DHT22;11911;50.768;13.150;2022-08-19T13:15:07;18.70;96.30
23477;DHT22;11911;50.768;13.150;2022-08-19T13:17:34;18.70;96.30
23477;DHT22;11911;50.768;13.150;2022-08-19T13:20:00;18.60;96.30
23477;DHT22;11911;50.768;13.150;2022-08-19T13:22:26;18.60;96.30
23477;DHT22;11911;50.768;13.150;2022-08-19T13:24:52;18.50;96.30
23477;DHT22;11911;50.768;13.150;2022-08-19T13:27:18;18.60;96.30
23477;DHT22;11911;50.768;13.150;2022-08-19T13:29:43;18.50;96.30
23477;DHT22;11911;50.768;13.150;2022-08-19T13:32:29;18.50;96.30
23477;DHT22;11911;50.768;13.150;2022-08-19T13:35:13;18.50;96.30
23477;DHT22;11911;50.768;13.150;2022-08-19T13:37:40;18.50;96.30
23477;DHT22;11911;50.768;13.150;2022-08-19T13:40:20;18.50;96.30
23477;DHT22;11911;50.768;13.150;2022-08-19T13:42:51;18.60;96.30
23477;DHT22;11911;50.768;13.150;2022-08-19T13:45:20;18.70;96.30
23477;DHT22;11911;50.768;13.150;2022-08-19T13:47:47;18.70;96.30
23477;DHT22;11911;50.768;13.150;2022-08-19T13:50:15;18.80;96.30
23477;DHT22;11911;50.768;13.150;2022-08-19T13:52:42;18.90;96.30
23477;DHT22;11911;50.768;13.150;2022-08-19T13:55:08;18.80;96.30
23477;DHT22;11911;50.768;13.150;2022-08-19T13:57:35;18.80;96.30
23477;DHT22;11911;50.768;13.150;2022-08-19T14:00:02;18.80;96.30
23477;DHT22;11911;50.768;13.150;2022-08-19T14:02:28;18.80;96.30
23477;DHT22;11911;50.768;13.150;2022-08-19T14:04:54;18.90;96.30
23477;DHT22;11911;50.768;13.150;2022-08-19T14:07:19;18.90;96.30
23477;DHT22;11911;50.768;13.150;2022-08-19T14:09:45;18.90;96.30
23477;DHT22;11911;50.768;13.150;2022-08-19T14:12:10;18.90;96.30
23477;DHT22;11911;50.768;13.150;2022-08-19T14:14:37;18.90;96.30
23477;DHT22;11911;50.768;13.150;2022-08-19T14:17:06;18.80;96.30
23477;DHT22;11911;50.768;13.150;2022-08-19T14:19:32;18.80;96.30
23477;DHT22;11911;50.768;13.150;2022-08-19T14:21:57;18.70;96.30
23477;DHT22;11911;50.768;13.150;2022-08-19T14:24:23;18.70;96.30
23477;DHT22;11911;50.768;13.150;2022-08-19T14:26:48;18.70;96.30
23477;DHT22;11911;50.768;13.150;2022-08-19T14:29:14;18.70;96.30
23477;DHT22;11911;50.768;13.150;2022-08-19T14:31:39;18.70;96.30
23477;DHT22;11911;50.768;13.150;2022-08-19T14:34:06;18.70;96.30
23477;DHT22;11911;50.768;13.150;2022-08-19T14:36:31;18.70;96.30
23477;DHT22;11911;50.768;13.150;2022-08-19T14:38:59;18.70;96.30
23477;DHT22;11911;50.768;13.150;2022-08-19T14:41:26;18.60;96.30
23477;DHT22;11911;50.768;13.150;2022-08-19T14:43:53;18.60;96.30
23477;DHT22;11911;50.768;13.150;2022-08-19T14:46:21;18.60;96.30
23477;DHT22;11911;50.768;13.150;2022-08-19T14:48:48;18.60;96.30
23477;DHT22;11911;50.768;13.150;2022-08-19T14:51:14;18.60;96.30
23477;DHT22;11911;50.768;13.150;2022-08-19T14:53:40;18.60;96.30
23477;DHT22;11911;50.768;13.150;2022-08-19T14:56:11;18.60;96.30
23477;DHT22;11911;50.768;13.150;2022-08-19T14:58:37;18.60;96.30
23477;DHT22;11911;50.768;13.150;2022-08-19T15:01:02;18.60;96.30
23477;DHT22;11911;50.768;13.150;2022-08-19T15:03:28;18.60;96.30
23477;DHT22;11911;50.768;13.150;2022-08-19T15:05:54;18.60;96.30
23477;DHT22;11911;50.768;13.150;2022-08-19T15:08:21;18.60;96.30
23477;DHT22;11911;50.768;13.150;2022-08-19T15:10:50;18.60;96.30
23477;DHT22;11911;50.768;13.150;2022-08-19T15:13:16;18.60;96.30
23477;DHT22;11911;50.768;13.150;2022-08-19T15:15:41;18.60;96.30
23477;DHT22;11911;50.768;13.150;2022-08-19T15:18:07;18.60;96.30
23477;DHT22;11911;50.768;13.150;2022-08-19T15:20:32;18.60;96.30
23477;DHT22;11911;50.768;13.150;2022-08-19T15:22:58;18.70;96.30
23477;DHT22;11911;50.768;13.150;2022-08-19T15:25:26;18.80;96.30
23477;DHT22;11911;50.768;13.150;2022-08-19T15:27:52;18.90;96.30
23477;DHT22;11911;50.768;13.150;2022-08-19T15:30:24;18.90;96.30
23477;DHT22;11911;50.768;13.150;2022-08-19T15:32:49;19.00;96.30
23477;DHT22;11911;50.768;13.150;2022-08-19T15:35:15;19.00;96.30
23477;DHT22;11911;50.768;13.150;2022-08-19T15:37:43;19.10;96.30
23477;DHT22;11911;50.768;13.150;2022-08-19T15:40:10;19.10;96.30
23477;DHT22;11911;50.768;13.150;2022-08-19T15:42:37;19.00;96.30
23477;DHT22;11911;50.768;13.150;2022-08-19T15:45:07;19.00;96.30
23477;DHT22;11911;50.768;13.150;2022-08-19T15:47:35;19.00;96.30
23477;DHT22;11911;50.768;13.150;2022-08-19T15:50:05;19.00;96.30
23477;DHT22;11911;50.768;13.150;2022-08-19T15:52:30;19.00;96.30
23477;DHT22;11911;50.768;13.150;2022-08-19T15:54:56;18.90;96.30
23477;DHT22;11911;50.768;13.150;2022-08-19T15:57:21;18.90;96.30
23477;DHT22;11911;50.768;13.150;2022-08-19T15:59:47;19.00;96.30
23477;DHT22;11911;50.768;13.150;2022-08-19T16:02:31;19.00;96.30
23477;DHT22;11911;50.768;13.150;2022-08-19T16:05:19;19.00;96.30
23477;DHT22;11911;50.768;13.150;2022-08-19T16:08:04;18.90;96.30
23477;DHT22;11911;50.768;13.150;2022-08-19T16:10:30;18.90;96.30
23477;DHT22;11911;50.768;13.150;2022-08-19T16:12:57;18.80;96.30
23477;DHT22;11911;50.768;13.150;2022-08-19T16:15:25;18.80;96.30
23477;DHT22;11911;50.768;13.150;2022-08-19T16:17:52;18.80;96.30
23477;DHT22;11911;50.768;13.150;2022-08-19T16:20:19;18.80;96.30
23477;DHT22;11911;50.768;13.150;2022-08-19T16:22:47;18.70;96.30
23477;DHT22;11911;50.768;13.150;2022-08-19T16:25:13;18.70;96.30
23477;DHT22;11911;50.768;13.150;2022-08-19T16:27:39;18.60;96.30
23477;DHT22;11911;50.768;13.150;2022-08-19T16:30:06;18.50;96.30
23477;DHT22;11911;50.768;13.150;2022-08-19T16:32:32;18.50;96.30
23477;DHT22;11911;50.768;13.150;2022-08-19T16:34:58;18.50;96.30
23477;DHT22;11911;50.768;13.150;2022-08-19T16:37:24;18.50;96.30
23477;DHT22;11911;50.768;13.150;2022-08-19T16:39:50;18.50;96.30
23477;DHT22;11911;50.768;13.150;2022-08-19T16:42:15;18.50;96.30
23477;DHT22;11911;50.768;13.150;2022-08-19T16:44:43;18.50;96.30
23477;DHT22;11911;50.768;13.150;2022-08-19T16:47:10;18.50;96.30
23477;DHT22;11911;50.768;13.150;2022-08-19T16:49:37;18.50;96.30
23477;DHT22;11911;50.768;13.150;2022-08-19T16:52:02;18.50;96.30
23477;DHT22;11911;50.768;13.150;2022-08-19T16:54:30;18.50;96.30
23477;DHT22;11911;50.768;13.150;2022-08-19T16:56:56;18.50;96.30
23477;DHT22;11911;50.768;13.150;2022-08-19T16:59:22;18.50;96.30
23477;DHT22;11911;50.768;13.150;2022-08-19T17:01:48;18.50;96.30
23477;DHT22;11911;50.768;13.150;2022-08-19T17:04:14;18.50;96.30
23477;DHT22;11911;50.768;13.150;2022-08-19T17:06:39;18.50;96.30
23477;DHT22;11911;50.768;13.150;2022-08-19T17:09:06;18.50;96.30
23477;DHT22;11911;50.768;13.150;2022-08-19T17:11:32;18.40;96.30
23477;DHT22;11911;50.768;13.150;2022-08-19T17:13:59;18.40;96.30
23477;DHT22;11911;50.768;13.150;2022-08-19T17:16:27;18.40;96.30
23477;DHT22;11911;50.768;13.150;2022-08-19T17:18:55;18.30;96.30
23477;DHT22;11911;50.768;13.150;2022-08-19T17:21:25;18.30;96.30
23477;DHT22;11911;50.768;13.150;2022-08-19T17:23:57;18.20;96.30
23477;DHT22;11911;50.768;13.150;2022-08-19T17:26:23;18.20;96.30
23477;DHT22;11911;50.768;13.150;2022-08-19T17:28:51;18.20;96.30
23477;DHT22;11911;50.768;13.150;2022-08-19T17:31:21;18.10;96.30
23477;DHT22;11911;50.768;13.150;2022-08-19T17:33:47;18.10;96.30
23477;DHT22;11911;50.768;13.150;2022-08-19T17:36:13;18.10;96.30
23477;DHT22;11911;50.768;13.150;2022-08-19T17:38:39;18.10;96.30
23477;DHT22;11911;50.768;13.150;2022-08-19T17:41:05;18.10;96.30
23477;DHT22;11911;50.768;13.150;2022-08-19T17:43:32;18.00;96.30
23477;DHT22;11911;50.768;13.150;2022-08-19T17:45:59;18.00;96.30
23477;DHT22;11911;50.768;13.150;2022-08-19T17:48:31;18.00;96.30
23477;DHT22;11911;50.768;13.150;2022-08-19T17:51:16;18.00;96.30
23477;DHT22;11911;50.768;13.150;2022-08-19T17:53:42;17.90;96.30
23477;DHT22;11911;50.768;13.150;2022-08-19T17:56:08;17.90;96.30
23477;DHT22;11911;50.768;13.150;2022-08-19T17:58:35;17.90;96.30
23477;DHT22;11911;50.768;13.150;2022-08-19T18:01:00;17.90;96.30
23477;DHT22;11911;50.768;13.150;2022-08-19T18:03:27;17.90;96.30
23477;DHT22;11911;50.768;13.150;2022-08-19T18:05:55;17.90;96.30
23477;DHT22;11911;50.768;13.150;2022-08-19T18:08:21;17.90;96.30
23477;DHT22;11911;50.768;13.150;2022-08-19T18:10:47;17.90;96.30
23477;DHT22;11911;50.768;13.150;2022-08-19T18:13:13;17.80;96.30
23477;DHT22;11911;50.768;13.150;2022-08-19T18:15:40;17.80;96.30
23477;DHT22;11911;50.768;13.150;2022-08-19T18:18:06;17.90;96.30
23477;DHT22;11911;50.768;13.150;2022-08-19T18:20:33;17.90;96.30
23477;DHT22;11911;50.768;13.150;2022-08-19T18:22:59;17.80;96.30
23477;DHT22;11911;50.768;13.150;2022-08-19T18:25:26;17.80;96.30
23477;DHT22;11911;50.768;13.150;2022-08-19T18:27:56;17.80;96.30
23477;DHT22;11911;50.768;13.150;2022-08-19T18:30:23;17.80;96.30
23477;DHT22;11911;50.768;13.150;2022-08-19T18:32:51;17.80;96.30
23477;DHT22;11911;50.768;13.150;2022-08-19T18:35:22;17.80;96.30
23477;DHT22;11911;50.768;13.150;2022-08-19T18:37:49;17.80;96.30
23477;DHT22;11911;50.768;13.150;2022-08-19T18:40:18;17.80;96.30
23477;DHT22;11911;50.768;13.150;2022-08-19T18:43:04;17.80;96.30
23477;DHT22;11911;50.768;13.150;2022-08-19T18:45:49;17.80;96.30
23477;DHT22;11911;50.768;13.150;2022-08-19T18:48:34;17.70;96.30
23477;DHT22;11911;50.768;13.150;2022-08-19T18:51:18;17.70;96.30
23477;DHT22;11911;50.768;13.150;2022-08-19T18:53:45;17.70;96.30
23477;DHT22;11911;50.768;13.150;2022-08-19T18:56:14;17.70;96.30
23477;DHT22;11911;50.768;13.150;2022-08-19T18:58:41;17.70;96.30
23477;DHT22;11911;50.768;13.150;2022-08-19T19:01:11;17.70;96.30
23477;DHT22;11911;50.768;13.150;2022-08-19T19:03:40;17.70;96.30
23477;DHT22;11911;50.768;13.150;2022-08-19T19:06:08;17.70;96.30
23477;DHT22;11911;50.768;13.150;2022-08-19T19:08:33;17.70;96.30
23477;DHT22;11911;50.768;13.150;2022-08-19T19:11:01;17.60;96.30
23477;DHT22;11911;50.768;13.150;2022-08-19T19:13:32;17.60;96.30
23477;DHT22;11911;50.768;13.150;2022-08-19T19:15:58;17.60;96.30
23477;DHT22;11911;50.768;13.150;2022-08-19T19:18:26;17.60;96.30
23477;DHT22;11911;50.768;13.150;2022-08-19T19:20:52;17.50;96.30
23477;DHT22;11911;50.768;13.150;2022-08-19T19:23:17;17.50;96.30
23477;DHT22;11911;50.768;13.150;2022-08-19T19:25:42;17.50;96.30
23477;DHT22;11911;50.768;13.150;2022-08-19T19:28:09;17.50;96.30